Bodega Marine Reserve, California Weather observations

Data are for 10 minute period ending at time listed.
 Day   Time   Solar   Ave.   Ave.  Ave.  Vector  Max.   Baro.   Total    
  of    of     Rad.   Air    Rel.  Wind   Wind   Wind  Press.  Precip.   
Year   Day            Temp.  Hum.  Speed  Dir.   Gust                    
2015   (PST)  Kw/m2    F      %     mph   deg.    mph    mb.     in.     
-------------------------------------------------------------------------
 113   17:10   0.11   54.9    70   17.5   336    24.3   1007.5    0.00 
 113   17:20   0.14   54.7    71   16.6   339    22.6   1007.5    0.00 
 113   17:30   0.11   54.0    73   18.4   331    26.7   1007.5    0.00 
 113   17:40   0.09   53.6    75   19.1   330    26.1   1007.5    0.00 
 113   17:50   0.07   53.3    76   19.5   328    29.0   1007.5    0.00 
 113   18:00   0.07   53.1    77   19.8   326    29.0   1007.5    0.00 
 113   18:10   0.06   52.9    79   20.6   328    28.6   1007.5    0.00 
 113   18:20   0.05   52.9    79   19.8   325    31.6   1007.5    0.00 
 113   18:30   0.03   52.7    80   24.7   312    34.4   1007.1    0.00 
 113   18:40   0.02   52.4    81   26.0   304    35.1   1007.1    0.00 
 113   18:50   0.01   52.2    82   28.0   305    39.5   1007.1    0.00 
 113   19:00   0.00   52.2    82   26.3   307    37.5   1007.1    0.00 
 113   19:10   0.00   52.3    82   24.6   308    32.8   1007.5    0.00 
 113   19:20   0.00   52.3    83   19.5   318    27.0   1007.8    0.00 
 113   19:30   0.00   52.4    83   23.9   302    30.8   1007.5    0.00 
 113   19:40   0.00   52.2    83   23.9   302    32.3   1007.8    0.00 
 113   19:50   0.00   52.0    84   23.2   302    31.2   1007.8    0.00 
 113   20:00   0.00   51.8    85   23.2   302    31.1   1008.1    0.00 
 113   20:10   0.00   51.6    86   22.7   304    31.0   1008.1    0.00 
 113   20:20   0.00   51.5    87   22.9   302    31.9   1008.1    0.00 
 113   20:30   0.00   51.5    87   24.5   301    32.5   1008.5    0.00 
 113   20:40   0.00   51.5    87   24.9   303    34.2   1008.5    0.00 
 113   20:50   0.00   51.5    88   25.1   303    35.6   1008.5    0.00 
 113   21:00   0.00   51.5    88   23.3   303    32.4   1008.5    0.00 
 113   21:10   0.00   51.4    88   24.2   302    33.1   1008.8    0.00 
 113   21:20   0.00   51.4    88   24.5   301    33.8   1008.8    0.00 
 113   21:30   0.00   51.4    89   25.3   300    32.9   1009.1    0.00 
 113   21:40   0.00   51.5    89   26.5   300    34.3   1009.1    0.00 
 113   21:50   0.00   51.5    89   24.0   303    34.6   1009.1    0.00 
 113   22:00   0.00   51.5    89   23.3   300    34.1   1009.1    0.00 
 113   22:10   0.00   51.3    90   23.6   298    30.8   1009.1    0.00 
 113   22:20   0.00   51.1    90   23.5   297    30.2   1009.1    0.00 
 113   22:30   0.00   51.0    91   24.6   296    34.4   1009.1    0.00 
 113   22:40   0.01   51.0    91   22.7   296    30.0   1009.5    0.00 
 113   22:50   0.01   50.8    92   21.8   296    30.1   1009.5    0.00 
 113   23:00   0.01   50.7    92   21.7   297    29.5   1009.5    0.00 
 113   23:10   0.01   50.6    92   21.3   297    27.1   1009.5    0.00 
 113   23:20   0.01   50.6    93   20.5   300    26.7   1009.5    0.00 
 113   23:30   0.01   50.6    93   19.6   300    25.4   1009.8    0.00 
 113   23:40   0.01   50.6    93   20.0   298    29.3   1009.8    0.00 
 113   23:50   0.01   50.6    93   19.9   298    27.5   1009.8    0.00 
 114    0:00   0.01   50.6    94   20.8   297    28.0   1009.5    0.00 
 114    0:10   0.01   50.7    94   21.8   296    28.8   1009.5    0.00 
 114    0:20   0.01   50.6    94   20.3   296    26.5   1009.5    0.00 
 114    0:30   0.01   50.5    94   20.2   296    27.2   1009.5    0.00 
 114    0:40   0.01   50.5    94   18.5   298    25.6   1009.5    0.00 
 114    0:50   0.01   50.4    94   19.8   302    26.5   1009.8    0.00 
 114    1:00   0.01   50.5    95   20.0   303    25.8   1009.8    0.00 
 114    1:10   0.01   50.2    95   18.8   304    25.4   1009.8    0.00 
 114    1:20   0.01   50.2    95   16.7   303    25.5   1009.8    0.00 
 114    1:30   0.01   50.1    95   16.7   304    21.9   1009.8    0.00 
 114    1:40   0.01   50.0    95   17.5   301    23.6   1009.8    0.00 
 114    1:50   0.01   49.8    95   17.1   300    23.7   1009.5    0.00 
 114    2:00   0.01   49.7    96   16.2   300    22.3   1009.5    0.00 
 114    2:10   0.01   50.1    96   16.9   298    22.7   1009.5    0.00 
 114    2:20   0.01   50.0    95   16.6   299    23.2   1009.8    0.00 
 114    2:30   0.01   49.7    96   15.6   301    22.7   1009.8    0.00 
 114    2:40   0.01   49.6    96   16.5   299    22.8   1009.8    0.00 
 114    2:50   0.01   49.6    96   15.4   300    22.5   1009.8    0.00 
 114    3:00   0.01   49.4    96   12.6   315    18.8   1010.2    0.00 
 114    3:10   0.01   49.3    96   11.1   330    16.6   1010.2    0.00 
 114    3:20   0.01   49.2    96   11.4   327    18.8   1010.2    0.00 
 114    3:30   0.01   48.9    96   15.0   308    23.5   1010.2    0.00 
 114    3:40   0.01   48.6    96   15.9   311    23.6   1010.5    0.00 
 114    3:50   0.01   48.5    96   16.3   314    22.8   1010.5    0.00 
 114    4:00   0.01   48.5    96   15.2   318    21.2   1010.5    0.00 
 114    4:10   0.01   48.5    96   12.8   319    19.4   1010.5    0.00 
 114    4:20   0.01   48.4    96   11.3   322    17.5   1010.5    0.00 
 114    4:30   0.01   48.4    96    9.4   335    15.9   1010.5    0.00 
 114    4:40   0.01   48.5    96    8.7   327    13.7   1010.5    0.00 
 114    4:50   0.01   48.4    96   13.8   304    20.0   1010.5    0.00 
 114    5:00   0.01   48.6    95   16.8   298    22.1   1010.5    0.00 
 114    5:10   0.01   48.5    95   15.9   298    23.9   1010.5    0.00 
 114    5:20   0.01   48.5    95   17.9   297    23.3   1010.8    0.00 
 114    5:30   0.01   48.5    95   18.0   298    26.2   1010.8    0.00 
 114    5:40   0.01   48.4    94   16.0   302    23.3   1011.2    0.00 
 114    5:50   0.03   48.5    94   19.2   299    26.3   1010.8    0.00 
 114    6:00   0.03   48.7    94   19.0   299    27.5   1011.2    0.00 
 114    6:10   0.04   48.8    93   16.9   301    22.9   1011.2    0.00 
 114    6:20   0.04   49.0    93   17.0   300    22.8   1011.2    0.00 
 114    6:30   0.06   49.2    92   17.9   300    23.6   1011.2    0.00 
 114    6:40   0.07   49.2    92   17.3   303    22.1   1011.5    0.00 
 114    6:50   0.08   49.3    92   14.9   302    21.1   1011.5    0.00 
 114    7:00   0.10   49.5    91   15.6   302    21.5   1011.5    0.00 
 114    7:10   0.16   49.9    90   16.3   301    21.9   1011.5    0.00 
 114    7:20   0.14   50.1    89   14.9   304    21.9   1011.5    0.00 
 114    7:30   0.17   50.3    89   15.5   299    22.1   1011.5    0.00 
 114    7:40   0.20   50.8    88   15.0   303    22.1   1011.9    0.00 
 114    7:50   0.22   51.1    88   14.6   301    20.1   1012.2    0.00 
 114    8:00   0.25   51.5    87   13.8   300    18.2   1012.2    0.00 
 114    8:10   0.23   51.5    86   14.1   298    18.9   1012.5    0.00 
 114    8:20   0.26   51.6    86   12.7   296    18.5   1012.5    0.00 
 114    8:30   0.34   52.2    85   13.0   289    17.9   1012.9    0.00 
 114    8:40   0.33   51.9    85   12.2   287    18.0   1013.2    0.00 
 114    8:50   0.55   53.3    83   14.6   286    20.1   1013.2    0.00 
 114    9:00   0.59   53.9    80   15.1   287    20.0   1013.2    0.00 
 114    9:10   0.62   54.4    79   15.4   288    20.5   1013.2    0.00 
 114    9:20   0.63   54.8    78   16.5   289    21.9   1013.2    0.00 
 114    9:30   0.68   54.9    78   16.4   289    22.7   1013.5    0.00 
 114    9:40   0.70   55.2    77   16.4   288    21.3   1013.5    0.00 
 114    9:50   0.71   55.4    76   17.2   286    25.1   1013.5    0.00 
 114   10:00   0.72   55.6    75   17.4   286    23.7   1013.5    0.00 
 114   10:10   0.72   55.7    75   18.7   286    27.2   1013.5    0.00 
 114   10:20   0.77   56.1    74   16.9   287    24.3   1013.5    0.00 
 114   10:30   0.80   56.5    72   18.8   288    27.1   1013.9    0.00 
 114   10:40   0.82   56.3    73   20.7   287    26.3   1013.9    0.00 
 114   10:50   0.83   56.2    75   19.3   288    24.8   1014.2    0.00 
 114   11:00   0.84   56.8    74   18.0   288    24.1   1013.9    0.00 
 114   11:10   0.85   56.3    75   18.5   288    23.6   1013.9    0.00 
 114   11:20   0.86   56.5    74   17.9   288    23.6   1013.9    0.00 
 114   11:30   0.88   56.9    74   16.4   288    23.2   1013.9    0.00 
 114   11:40   0.95   57.6    73   14.4   284    22.1   1013.9    0.00 
 114   11:50   0.92   57.5    72   16.2   284    21.1   1014.2    0.00 
 114   12:00   0.92   56.7    72   17.1   284    23.1   1014.2    0.00 
 114   12:10   0.92   57.0    71   16.3   286    21.9   1014.2    0.00 
 114   12:20   0.90   57.1    69   15.8   287    22.8   1014.2    0.00 
 114   12:30   0.86   56.9    70   16.7   289    23.2   1014.2    0.00 
 114   12:40   0.87   57.4    69   14.7   289    20.5   1014.2    0.00 
 114   12:50   0.83   57.3    69   15.5   289    21.2   1014.2    0.00 
 114   13:00   0.86   57.5    67   14.1   292    20.5   1014.2    0.00 
 114   13:10   0.85   57.1    67   14.2   288    19.4   1013.9    0.00 
 114   13:20   0.85   57.0    68   13.7   287    18.9   1013.9    0.00 
 114   13:30   0.84   57.0    69   13.7   284    19.1   1013.9    0.00 
 114   13:40   0.83   56.6    69   15.0   284    19.6   1013.9    0.00 
 114   13:50   0.80   56.3    70   15.2   284    19.4   1013.9    0.00 
 114   14:00   0.71   56.3    71   13.4   283    19.0   1013.9    0.00 
 114   14:10   0.43   55.6    72   13.0   285    18.7   1013.9    0.00 
 114   14:20   0.71   55.7    73   13.2   283    18.0   1013.9    0.00 
 114   14:30   0.73   56.0    72   14.3   282    19.3   1013.5    0.00 
 114   14:40   0.34   56.5    72   12.4   282    17.2   1013.5    0.00 
 114   14:50   0.15   56.7    71   13.4   284    18.2   1013.9    0.00 
 114   15:00   0.58   56.3    71   13.4   281    19.4   1013.9    0.00 
 114   15:10   0.69   56.0    71   14.5   280    20.2   1013.9    0.00 
 114   15:20   0.66   56.5    70   14.6   276    19.6   1013.9    0.00 
 114   15:30   0.58   56.1    71   14.6   277    19.4   1013.9    0.00 
 114   15:40   0.23   54.6    73   12.8   282    17.2   1013.9    0.00 
 114   15:50   0.23   53.8    75   12.3   284    16.7   1013.9    0.00 
 114   16:00   0.27   54.0    75   11.6   281    16.5   1013.9    0.00 
 114   16:10   0.33   54.3    73   13.2   275    16.4   1013.5    0.00 
 114   16:20   0.22   53.7    75   12.1   274    15.1   1013.5    0.00 
 114   16:30   0.28   53.7    75   12.2   274    14.6   1013.5    0.00 
 114   16:40   0.14   53.2    77    9.9   277    13.2   1013.5    0.00 
 114   16:50   0.13   52.9    79    8.2   284    10.2   1013.5    0.00 
 114   17:00   0.16   52.8    79    7.4   281    10.0   1013.5    0.00 

Return to Bodega Marine Reserve graphs page.


Western Regional Climate Center,wrcc@dri.edu